createdAt,value
2022-11-20T00:01:31.259Z,184.97
2022-11-20T00:03:59.352Z,178.50
2022-11-20T00:06:28.139Z,161.20
2022-11-20T00:08:57.791Z,141.63
2022-11-20T00:11:26.356Z,133.03
2022-11-20T00:13:56.123Z,120.27
2022-11-20T00:16:25.754Z,112.93
2022-11-20T00:18:53.292Z,117.03
2022-11-20T00:21:22.507Z,151.23
2022-11-20T00:23:50.314Z,174.17
2022-11-20T00:26:19.757Z,174.80
2022-11-20T00:28:52.777Z,142.00
2022-11-20T00:31:23.128Z,127.87
2022-11-20T00:33:50.882Z,141.77
2022-11-20T00:36:20.928Z,131.50
2022-11-20T00:38:48.373Z,111.37
2022-11-20T00:41:16.947Z,115.60
2022-11-20T00:43:44.646Z,158.07
2022-11-20T00:46:17.148Z,189.57
2022-11-20T00:48:44.858Z,150.23
2022-11-20T00:51:16.840Z,142.03
2022-11-20T00:53:44.896Z,132.37
2022-11-20T00:56:15.393Z,123.40
2022-11-20T00:58:44.556Z,112.70
2022-11-20T01:01:25.621Z,112.87
2022-11-20T01:03:55.041Z,145.67
2022-11-20T01:06:25.093Z,141.60
2022-11-20T01:08:54.834Z,160.60
2022-11-20T01:11:25.270Z,130.30
2022-11-20T01:13:54.037Z,120.63
2022-11-20T01:16:30.371Z,125.37
2022-11-20T01:18:59.659Z,121.87
2022-11-20T01:21:29.922Z,123.27
2022-11-20T01:23:57.942Z,164.70
2022-11-20T01:26:27.992Z,131.13
2022-11-20T01:28:56.301Z,126.47
2022-11-20T01:31:33.762Z,113.67
2022-11-20T01:34:07.103Z,117.33
2022-11-20T01:36:36.960Z,127.87
2022-11-20T01:39:08.807Z,112.53
2022-11-20T01:41:54.799Z,119.80
2022-11-20T01:44:43.198Z,122.17
2022-11-20T01:47:13.380Z,123.40
2022-11-20T01:50:01.243Z,115.23
2022-11-20T01:52:37.657Z,119.93
2022-11-20T01:55:16.004Z,120.60
2022-11-20T01:57:45.351Z,118.13
2022-11-20T02:00:16.190Z,123.03
2022-11-20T02:02:48.822Z,138.23
2022-11-20T02:05:30.007Z,137.10
2022-11-20T02:07:59.019Z,124.63
2022-11-20T02:10:28.151Z,131.07
2022-11-20T02:13:14.574Z,119.70
2022-11-20T02:15:42.027Z,141.87
2022-11-20T02:18:10.636Z,144.23
2022-11-20T02:20:38.404Z,134.70
2022-11-20T02:23:13.724Z,145.57
2022-11-20T02:25:42.466Z,182.43
2022-11-20T02:28:09.794Z,180.80
2022-11-20T02:30:37.087Z,166.87
2022-11-20T02:33:04.232Z,147.30
2022-11-20T02:35:31.257Z,153.37
2022-11-20T02:38:02.349Z,150.40
2022-11-20T02:40:30.436Z,142.37
2022-11-20T02:42:58.341Z,167.73
2022-11-20T02:45:26.309Z,188.60
2022-11-20T02:47:53.561Z,176.67
2022-11-20T02:50:21.357Z,171.63
2022-11-20T02:52:48.544Z,140.63
2022-11-20T02:55:15.770Z,126.43
2022-11-20T02:57:42.849Z,126.37
2022-11-20T03:00:10.780Z,125.23
2022-11-20T03:02:38.223Z,110.50
2022-11-20T03:05:05.540Z,106.53
2022-11-20T03:07:32.781Z,104.67
2022-11-20T03:09:59.995Z,109.23
2022-11-20T03:12:27.019Z,101.23
2022-11-20T03:14:54.039Z,107.03
2022-11-20T03:17:21.699Z,129.60
2022-11-20T03:19:48.749Z,130.97
2022-11-20T03:22:16.196Z,131.50
2022-11-20T03:24:43.217Z,126.73
2022-11-20T03:27:10.249Z,123.03
2022-11-20T03:29:37.636Z,122.83
2022-11-20T03:32:04.808Z,128.37
2022-11-20T03:34:31.882Z,113.07
2022-11-20T03:36:58.954Z,106.73
2022-11-20T03:39:26.066Z,114.87
2022-11-20T03:41:53.196Z,117.87
2022-11-20T03:44:23.098Z,104.80
2022-11-20T03:46:50.201Z,101.67
2022-11-20T03:49:17.365Z,93.57
2022-11-20T03:51:44.933Z,90.20
2022-11-20T03:54:12.057Z,94.07
2022-11-20T03:56:40.956Z,114.73
2022-11-20T03:59:08.333Z,107.30
2022-11-20T04:01:38.636Z,103.83
2022-11-20T04:04:05.988Z,105.07
2022-11-20T04:06:38.375Z,102.10
2022-11-20T04:09:06.559Z,112.17
2022-11-20T04:11:36.568Z,105.70
2022-11-20T04:14:06.128Z,114.00
2022-11-20T04:16:35.393Z,107.77
2022-11-20T04:19:04.553Z,117.13
2022-11-20T04:21:31.693Z,121.70
2022-11-20T04:23:59.316Z,116.53
2022-11-20T04:26:28.598Z,111.23
2022-11-20T04:28:56.121Z,114.73
2022-11-20T04:31:25.959Z,107.10
2022-11-20T04:33:53.167Z,105.40
2022-11-20T04:36:25.499Z,100.70
2022-11-20T04:38:57.003Z,109.23
2022-11-20T04:41:26.494Z,104.60
2022-11-20T04:44:00.800Z,103.43
2022-11-20T04:46:29.139Z,109.63
2022-11-20T04:48:56.723Z,113.33
2022-11-20T04:51:24.316Z,103.20
2022-11-20T04:53:51.511Z,108.93
2022-11-20T04:56:18.862Z,103.80
2022-11-20T04:58:45.965Z,112.30
2022-11-20T05:01:21.982Z,104.57
2022-11-20T05:03:49.621Z,102.07
2022-11-20T05:06:19.047Z,99.80
2022-11-20T05:08:46.309Z,107.13
2022-11-20T05:11:16.891Z,102.97
2022-11-20T05:13:44.219Z,107.77
2022-11-20T05:16:17.145Z,109.73
2022-11-20T05:18:44.950Z,103.50
2022-11-20T05:21:13.086Z,101.27
2022-11-20T05:23:40.697Z,114.83
2022-11-20T05:26:13.160Z,120.50
2022-11-20T05:28:40.276Z,99.97
2022-11-20T05:31:08.374Z,100.13
2022-11-20T05:33:36.947Z,106.50
2022-11-20T05:36:05.449Z,116.90
2022-11-20T05:38:33.091Z,141.27
2022-11-20T05:41:18.088Z,158.97
2022-11-20T05:43:48.736Z,155.20
2022-11-20T05:46:19.622Z,97.43
2022-11-20T05:48:49.563Z,137.03
2022-11-20T05:51:19.411Z,116.20
2022-11-20T05:53:48.823Z,109.87
2022-11-20T05:56:19.665Z,112.47
2022-11-20T05:58:47.264Z,110.27
2022-11-20T06:01:25.814Z,115.83
2022-11-20T06:03:53.833Z,125.07
2022-11-20T06:06:21.957Z,119.07
2022-11-20T06:08:49.890Z,122.13
2022-11-20T06:11:18.335Z,114.17
2022-11-20T06:13:46.039Z,122.90
2022-11-20T06:16:15.362Z,145.93
2022-11-20T06:18:42.643Z,144.23
2022-11-20T06:21:15.872Z,228.60
2022-11-20T06:23:43.975Z,211.50
2022-11-20T06:26:24.260Z,200.53
2022-11-20T06:28:52.335Z,230.53
2022-11-20T06:31:24.343Z,203.93
2022-11-20T06:33:52.559Z,196.20
2022-11-20T06:36:23.163Z,223.03
2022-11-20T06:38:50.847Z,257.03
2022-11-20T06:41:21.566Z,202.20
2022-11-20T06:43:49.153Z,142.87
2022-11-20T06:46:20.426Z,146.03
2022-11-20T06:48:49.400Z,133.30
2022-11-20T06:51:17.290Z,128.13
2022-11-20T06:53:44.577Z,114.57
2022-11-20T06:56:11.748Z,114.17
2022-11-20T06:58:39.076Z,113.47
2022-11-20T07:01:10.183Z,113.70
2022-11-20T07:03:37.863Z,124.43
2022-11-20T07:06:08.010Z,131.10
2022-11-20T07:08:36.584Z,132.57
2022-11-20T07:11:06.502Z,126.20
2022-11-20T07:13:34.017Z,128.20
2022-11-20T07:16:04.059Z,121.67
2022-11-20T07:18:31.556Z,117.07
2022-11-20T07:21:05.543Z,115.70
2022-11-20T07:23:32.750Z,114.73
2022-11-20T07:26:03.802Z,121.30
2022-11-20T07:28:30.877Z,169.97
2022-11-20T07:30:58.015Z,175.30
2022-11-20T07:33:25.420Z,144.90
2022-11-20T07:35:52.475Z,123.97
2022-11-20T07:38:19.800Z,94.57
2022-11-20T07:40:47.394Z,129.57
2022-11-20T07:43:14.603Z,99.83
2022-11-20T07:45:42.117Z,93.40
2022-11-20T07:48:09.261Z,89.33
2022-11-20T07:50:36.287Z,103.00
2022-11-20T07:53:07.004Z,104.40
2022-11-20T07:55:37.472Z,118.63
2022-11-20T07:58:04.820Z,140.20
2022-11-20T08:00:32.326Z,123.37
2022-11-20T08:03:00.222Z,117.60
2022-11-20T08:05:27.373Z,180.40
2022-11-20T08:07:54.413Z,141.70
2022-11-20T08:10:22.037Z,111.30
2022-11-20T08:13:12.462Z,134.83
2022-11-20T08:15:41.411Z,143.90
2022-11-20T08:21:02.698Z,112.53
2022-11-20T08:23:29.882Z,108.73
2022-11-20T08:25:57.022Z,132.30
2022-11-20T08:28:24.433Z,125.33
2022-11-20T08:30:51.827Z,126.60
2022-11-20T08:33:21.796Z,167.03
2022-11-20T08:35:48.883Z,149.23
2022-11-20T08:38:15.973Z,119.97
2022-11-20T08:41:03.752Z,122.07
2022-11-20T08:43:30.932Z,122.40
2022-11-20T08:45:58.683Z,97.97
2022-11-20T08:48:25.890Z,80.13
2022-11-20T08:50:52.927Z,87.77
2022-11-20T08:53:20.959Z,61.73
2022-11-20T08:55:48.118Z,104.93
2022-11-20T08:58:15.219Z,81.30
2022-11-20T09:00:42.358Z,71.33
2022-11-20T09:03:11.135Z,51.00
2022-11-20T09:05:38.597Z,43.53
2022-11-20T09:08:05.749Z,43.63
2022-11-20T09:10:33.489Z,39.43
2022-11-20T09:13:00.736Z,53.03
2022-11-20T09:15:27.917Z,52.90
2022-11-20T09:17:56.437Z,48.10
2022-11-20T09:20:23.773Z,49.83
2022-11-20T09:22:51.065Z,46.17
2022-11-20T09:25:18.575Z,38.37
2022-11-20T09:27:47.512Z,75.00
2022-11-20T09:30:16.230Z,61.63
2022-11-20T09:32:44.223Z,41.57
2022-11-20T09:35:12.262Z,41.40
2022-11-20T09:37:39.729Z,46.00
2022-11-20T09:40:08.040Z,38.57
2022-11-20T09:42:48.788Z,49.97
2022-11-20T09:45:23.311Z,37.20
2022-11-20T09:48:00.467Z,43.07
2022-11-20T09:50:34.627Z,36.00
2022-11-20T09:53:36.960Z,32.97
2022-11-20T09:56:11.783Z,31.53
2022-11-20T09:58:50.269Z,29.97
2022-11-20T10:01:30.679Z,36.17
2022-11-20T10:04:04.138Z,52.60
2022-11-20T10:06:34.951Z,45.47
2022-11-20T10:09:12.402Z,57.80
2022-11-20T10:12:07.439Z,41.90
2022-11-20T10:15:02.989Z,55.20
2022-11-20T10:17:54.229Z,35.50
2022-11-20T10:20:31.959Z,46.60
2022-11-20T10:23:33.763Z,31.77
2022-11-20T10:26:24.280Z,31.73
2022-11-20T10:29:10.002Z,24.53
2022-11-20T10:31:44.418Z,30.10
2022-11-20T10:34:22.948Z,26.57
2022-11-20T10:37:31.356Z,25.93
2022-11-20T10:40:26.222Z,30.40
2022-11-20T10:43:00.693Z,22.03
2022-11-20T10:45:30.434Z,20.90
2022-11-20T10:48:18.034Z,21.67
2022-11-20T10:51:13.875Z,36.17
2022-11-20T10:54:07.662Z,31.43
2022-11-20T10:56:49.502Z,45.80
2022-11-20T10:59:50.680Z,35.60
2022-11-20T11:02:23.375Z,28.07
2022-11-20T11:04:56.108Z,52.77
2022-11-20T11:07:29.268Z,34.87
2022-11-20T11:09:58.220Z,33.17
2022-11-20T11:12:28.529Z,44.43
2022-11-20T11:14:57.595Z,33.67
2022-11-20T11:17:30.766Z,31.20
2022-11-20T11:20:13.120Z,20.93
2022-11-20T11:22:49.901Z,24.40
2022-11-20T11:25:37.063Z,25.27
2022-11-20T11:28:20.881Z,20.37
2022-11-20T11:30:51.625Z,39.53
2022-11-20T11:33:29.870Z,21.77
2022-11-20T11:36:01.173Z,28.73
2022-11-20T11:38:38.602Z,25.90
2022-11-20T11:41:08.415Z,23.57
2022-11-20T11:43:56.575Z,25.73
2022-11-20T11:46:33.937Z,40.53
2022-11-20T11:49:09.921Z,39.83
2022-11-20T11:52:25.335Z,67.83
2022-11-20T11:54:58.310Z,25.80
2022-11-20T11:57:41.038Z,29.57
2022-11-20T12:00:20.851Z,36.73
2022-11-20T12:02:50.981Z,40.27
2022-11-20T12:05:26.270Z,39.17
2022-11-20T12:07:57.169Z,40.60
2022-11-20T12:10:55.193Z,58.67
2022-11-20T12:13:34.696Z,39.27
2022-11-20T12:16:05.940Z,36.10
2022-11-20T12:18:33.370Z,30.23
2022-11-20T12:21:20.008Z,28.03
2022-11-20T12:23:53.010Z,29.20
2022-11-20T12:26:40.299Z,29.00
2022-11-20T12:29:29.433Z,38.40
2022-11-20T12:32:33.877Z,41.20
2022-11-20T12:35:30.266Z,30.93
2022-11-20T12:38:24.815Z,37.60
2022-11-20T12:41:47.649Z,55.17
2022-11-20T12:45:01.262Z,34.80
2022-11-20T12:47:50.386Z,36.03
2022-11-20T12:51:14.640Z,35.40
2022-11-20T12:54:07.161Z,31.10
2022-11-20T12:56:43.802Z,35.13
2022-11-20T12:59:49.397Z,107.10
2022-11-20T13:02:24.902Z,33.17
2022-11-20T13:05:04.195Z,34.73
2022-11-20T13:07:33.412Z,160.63
2022-11-20T13:10:01.373Z,170.93
2022-11-20T13:12:42.268Z,56.50
2022-11-20T13:15:34.001Z,56.63
2022-11-20T13:18:04.111Z,33.13
2022-11-20T13:20:32.651Z,36.53
2022-11-20T13:23:00.206Z,32.27
2022-11-20T13:25:31.272Z,46.33
2022-11-20T13:28:02.935Z,32.20
2022-11-20T13:30:31.671Z,36.47
2022-11-20T13:33:09.507Z,85.20
2022-11-20T13:35:41.752Z,47.10
2022-11-20T13:38:11.728Z,42.03
2022-11-20T13:40:52.151Z,36.43
2022-11-20T13:43:29.992Z,32.17
2022-11-20T13:46:03.564Z,30.83
2022-11-20T13:48:43.680Z,40.07
2022-11-20T13:51:38.784Z,33.20
2022-11-20T13:54:52.807Z,42.17
2022-11-20T13:57:47.676Z,43.83
2022-11-20T14:00:26.463Z,39.83
2022-11-20T14:03:44.213Z,125.97
2022-11-20T14:06:32.761Z,93.97
2022-11-20T14:09:01.199Z,292.07
2022-11-20T14:11:32.782Z,99.67
2022-11-20T14:14:05.736Z,100.77
2022-11-20T14:16:38.970Z,82.40
2022-11-20T14:19:21.346Z,58.80
2022-11-20T14:21:49.811Z,64.93
2022-11-20T14:24:26.126Z,150.90
2022-11-20T14:26:54.032Z,126.77
2022-11-20T14:29:29.118Z,175.27
2022-11-20T14:32:00.517Z,145.20
2022-11-20T14:34:30.499Z,93.60
2022-11-20T14:37:03.247Z,81.97
2022-11-20T14:39:38.665Z,133.10
2022-11-20T14:42:18.230Z,236.33
2022-11-20T14:44:45.926Z,172.53
2022-11-20T14:47:16.598Z,73.23
2022-11-20T14:49:44.602Z,54.80
2022-11-20T14:52:23.465Z,34.77
2022-11-20T14:55:03.116Z,54.90
2022-11-20T14:57:36.087Z,76.13
2022-11-20T15:00:15.152Z,74.97
2022-11-20T15:02:50.621Z,76.57
2022-11-20T15:05:20.853Z,93.57
2022-11-20T15:08:15.175Z,94.60
2022-11-20T15:10:53.304Z,164.23
2022-11-20T15:13:31.306Z,289.83
2022-11-20T15:16:01.602Z,172.30
2022-11-20T15:18:30.502Z,111.53
2022-11-20T15:21:02.060Z,97.20
2022-11-20T15:23:30.216Z,126.90
2022-11-20T15:25:57.706Z,140.73
2022-11-20T15:28:34.476Z,161.67
2022-11-20T15:31:03.414Z,213.00
2022-11-20T15:33:31.307Z,237.00
2022-11-20T15:35:58.702Z,262.23
2022-11-20T15:38:25.838Z,235.30
2022-11-20T15:40:53.264Z,183.60
2022-11-20T15:43:20.681Z,108.53
2022-11-20T15:45:54.227Z,211.37
2022-11-20T15:48:26.204Z,219.17
2022-11-20T15:50:57.048Z,138.17
2022-11-20T15:53:24.263Z,130.87
2022-11-20T15:55:51.575Z,100.77
2022-11-20T15:58:18.807Z,163.00
2022-11-20T16:00:46.151Z,174.93
2022-11-20T16:03:15.518Z,194.07
2022-11-20T16:05:44.202Z,204.40
2022-11-20T16:08:12.167Z,208.87
2022-11-20T16:10:40.712Z,197.20
2022-11-20T16:13:37.266Z,218.63
2022-11-20T16:16:12.770Z,137.33
2022-11-20T16:18:39.802Z,154.07
2022-11-20T16:21:13.833Z,80.23
2022-11-20T16:23:43.752Z,85.80
2022-11-20T16:26:16.116Z,74.80
2022-11-20T16:28:43.599Z,90.97
2022-11-20T16:31:17.688Z,105.07
2022-11-20T16:33:51.350Z,115.53
2022-11-20T16:36:19.794Z,103.50
2022-11-20T16:38:50.999Z,87.73
2022-11-20T16:41:18.661Z,61.27
2022-11-20T16:43:51.570Z,56.47
2022-11-20T16:46:22.753Z,63.00
2022-11-20T16:48:57.605Z,253.67
2022-11-20T16:51:26.545Z,81.33
2022-11-20T16:53:56.817Z,106.67
2022-11-20T16:56:28.592Z,208.97
2022-11-20T16:59:00.684Z,172.17
2022-11-20T17:01:29.263Z,161.87
2022-11-20T17:04:05.360Z,162.97
2022-11-20T17:06:35.175Z,162.17
2022-11-20T17:09:03.594Z,183.13
2022-11-20T17:11:34.421Z,161.53
2022-11-20T17:14:05.055Z,160.57
2022-11-20T17:16:35.102Z,144.97
2022-11-20T17:19:03.931Z,172.97
2022-11-20T17:21:32.981Z,194.47
2022-11-20T17:24:05.802Z,220.87
2022-11-20T17:26:33.847Z,322.87
2022-11-20T17:29:07.133Z,275.20
2022-11-20T17:31:35.439Z,202.30
2022-11-20T17:34:05.308Z,187.67
2022-11-20T17:36:33.121Z,204.83
2022-11-20T17:39:01.406Z,222.90
2022-11-20T17:41:30.173Z,206.03
2022-11-20T17:44:01.937Z,217.83
2022-11-20T17:46:33.996Z,179.10
2022-11-20T17:49:02.371Z,201.13
2022-11-20T17:51:32.332Z,136.27
2022-11-20T17:54:02.168Z,92.90
2022-11-20T17:56:55.112Z,60.60
2022-11-20T17:59:23.717Z,58.03
2022-11-20T18:01:52.357Z,61.50
2022-11-20T18:04:19.641Z,169.83
2022-11-20T18:06:49.535Z,64.77
2022-11-20T18:09:18.728Z,70.27
2022-11-20T18:11:46.012Z,124.33
2022-11-20T18:14:35.044Z,168.03
2022-11-20T18:17:05.647Z,213.30
2022-11-20T18:19:40.433Z,167.57
2022-11-20T18:22:14.120Z,144.00
2022-11-20T18:24:42.330Z,236.47
2022-11-20T18:27:17.476Z,184.93
2022-11-20T18:29:46.452Z,188.60
2022-11-20T18:32:13.541Z,221.50
2022-11-20T18:34:41.577Z,197.97
2022-11-20T18:37:10.034Z,199.00
2022-11-20T18:39:38.095Z,178.67
2022-11-20T18:42:24.778Z,184.20
2022-11-20T18:44:52.907Z,180.63
2022-11-20T18:47:26.425Z,134.70
2022-11-20T18:49:58.812Z,73.33
2022-11-20T18:52:29.243Z,77.07
2022-11-20T18:54:57.078Z,72.03
2022-11-20T18:57:26.768Z,72.53
2022-11-20T19:00:03.480Z,67.77
2022-11-20T19:02:38.055Z,72.37
2022-11-20T19:05:09.390Z,70.60
2022-11-20T19:07:36.750Z,101.77
2022-11-20T19:10:05.713Z,232.73
2022-11-20T19:12:32.785Z,290.90
2022-11-20T19:15:00.151Z,453.47
2022-11-20T19:17:27.231Z,253.83
2022-11-20T19:19:57.055Z,533.70
2022-11-20T19:22:24.409Z,440.70
2022-11-20T19:24:51.910Z,372.93
2022-11-20T19:27:19.260Z,346.70
2022-11-20T19:29:46.457Z,345.37
2022-11-20T19:32:16.691Z,358.13
2022-11-20T19:34:44.997Z,334.83
2022-11-20T19:37:15.615Z,253.40
2022-11-20T19:39:42.632Z,243.03
2022-11-20T19:42:09.913Z,235.73
2022-11-20T19:44:37.600Z,253.13
2022-11-20T19:47:08.940Z,248.53
2022-11-20T19:49:40.485Z,235.30
2022-11-20T19:52:07.654Z,251.90
2022-11-20T19:54:34.748Z,237.40
2022-11-20T19:57:02.067Z,233.93
2022-11-20T19:59:29.145Z,198.13
2022-11-20T20:01:56.225Z,189.83
2022-11-20T20:04:23.624Z,227.20
2022-11-20T20:06:51.515Z,290.20
2022-11-20T20:09:18.891Z,355.10
2022-11-20T20:11:47.371Z,346.97
2022-11-20T20:14:16.268Z,330.43
2022-11-20T20:16:43.835Z,340.97
2022-11-20T20:19:17.116Z,328.20
2022-11-20T20:21:45.100Z,331.17
2022-11-20T20:24:12.628Z,316.63
2022-11-20T20:26:40.407Z,300.67
2022-11-20T20:29:07.787Z,262.47
2022-11-20T20:31:35.409Z,248.47
2022-11-20T20:34:05.551Z,242.97
2022-11-20T20:36:33.231Z,214.67
2022-11-20T20:39:00.352Z,153.37
2022-11-20T20:41:27.726Z,135.73
2022-11-20T20:44:14.109Z,164.60
2022-11-20T20:46:41.795Z,175.70
2022-11-20T20:49:09.587Z,168.90
2022-11-20T20:51:36.903Z,160.90
2022-11-20T20:54:04.893Z,139.87
2022-11-20T20:56:32.521Z,158.93
2022-11-20T20:58:59.672Z,170.17
2022-11-20T21:01:29.060Z,191.50
2022-11-20T21:03:57.579Z,195.13
2022-11-20T21:06:25.789Z,166.00
2022-11-20T21:08:53.216Z,131.43
2022-11-20T21:11:21.500Z,117.93
2022-11-20T21:13:50.089Z,110.23
2022-11-20T21:16:18.865Z,99.07
2022-11-20T21:18:46.618Z,96.97
2022-11-20T21:21:34.342Z,107.37
2022-11-20T21:24:02.979Z,109.30
2022-11-20T21:26:30.102Z,98.93
2022-11-20T21:28:58.245Z,93.23
2022-11-20T21:31:27.134Z,84.03
2022-11-20T21:33:56.078Z,82.63
2022-11-20T21:36:26.180Z,82.73
2022-11-20T21:38:57.476Z,77.07
2022-11-20T21:41:27.133Z,74.70
2022-11-20T21:44:29.533Z,73.83
2022-11-20T21:46:45.581Z,80.00
2022-11-20T21:49:13.686Z,175.93
2022-11-20T21:51:40.953Z,199.87
2022-11-20T21:54:10.054Z,181.77
2022-11-20T21:56:37.311Z,150.83
2022-11-20T21:59:04.637Z,154.00
2022-11-20T22:01:32.205Z,150.13
2022-11-20T22:04:01.928Z,142.90
2022-11-20T22:06:34.062Z,154.10
2022-11-20T22:09:03.019Z,150.93
2022-11-20T22:11:30.835Z,161.07
2022-11-20T22:14:16.998Z,138.13
2022-11-20T22:16:44.219Z,125.37
2022-11-20T22:19:11.482Z,145.30
2022-11-20T22:21:41.935Z,120.63
2022-11-20T22:24:13.023Z,120.97
2022-11-20T22:26:40.958Z,123.00
2022-11-20T22:29:11.258Z,124.13
2022-11-20T22:31:38.467Z,120.50
2022-11-20T22:34:05.665Z,127.50
2022-11-20T22:36:37.049Z,120.30
2022-11-20T22:39:05.460Z,129.93
2022-11-20T22:41:33.698Z,168.50
2022-11-20T22:44:03.515Z,240.13
2022-11-20T22:46:34.205Z,222.07
2022-11-20T22:49:04.729Z,197.67
2022-11-20T22:51:35.741Z,176.37
2022-11-20T22:54:03.851Z,146.30
2022-11-20T22:56:31.758Z,143.00
2022-11-20T22:58:59.116Z,141.20
2022-11-20T23:01:29.473Z,128.57
2022-11-20T23:04:01.500Z,144.97
2022-11-20T23:06:29.937Z,139.23
2022-11-20T23:08:57.275Z,128.17
2022-11-20T23:11:27.776Z,138.37
2022-11-20T23:13:58.465Z,142.37
2022-11-20T23:16:27.673Z,133.27
2022-11-20T23:18:56.430Z,141.53
2022-11-20T23:21:24.704Z,133.97
2022-11-20T23:23:54.505Z,147.20
2022-11-20T23:26:24.640Z,142.80
2022-11-20T23:28:54.497Z,149.80
2022-11-20T23:31:22.058Z,152.43
2022-11-20T23:33:50.136Z,192.50
2022-11-20T23:36:17.776Z,184.47
2022-11-20T23:38:45.075Z,160.90
2022-11-20T23:41:14.549Z,175.97
2022-11-20T23:43:42.630Z,207.13
2022-11-20T23:46:15.164Z,180.77
2022-11-20T23:48:45.359Z,163.77
2022-11-20T23:51:13.590Z,178.07
2022-11-20T23:53:41.537Z,172.77
2022-11-20T23:56:09.291Z,164.67
2022-11-20T23:58:38.609Z,175.23
